Time;durP1;ratioP1;P1;durP2;ratioP2;P2;SDS_P1;SDS_P2;PMS_P1;PMS_P2;Temp;Humidity;BMP_temperature;BMP_pressure;BME280_temperature;BME280_humidity;BME280_pressure;Samples;Min_cycle;Max_cycle;Signal;HPM_P1;HPM_P2
2023/04/19 00:02:09;;;;;;;11.43;9.50;;;;;;;10.53;67.53;99366.47;5067628;28;20044;-72
2023/04/19 00:04:40;;;;;;;11.85;9.95;;;;;;;10.50;67.39;99364.84;5067073;28;20111;-72
2023/04/19 00:07:07;;;;;;;11.60;10.40;;;;;;;10.49;67.59;99372.88;5067290;28;20063;-73
2023/04/19 00:09:35;;;;;;;11.63;10.32;;;;;;;10.32;67.40;99342.00;5067190;28;20277;-73
2023/04/19 00:12:02;;;;;;;12.05;10.55;;;;;;;10.46;67.43;99371.25;5067058;28;20040;-72
2023/04/19 00:14:28;;;;;;;10.52;9.45;;;;;;;10.46;67.62;99365.94;5066990;28;20300;-72
2023/04/19 00:16:55;;;;;;;11.98;9.93;;;;;;;10.47;67.55;99353.56;5066584;28;20067;-72
2023/04/19 00:19:22;;;;;;;12.77;10.55;;;;;;;10.44;67.56;99357.22;5066712;28;20236;-72
2023/04/19 00:21:49;;;;;;;11.80;10.23;;;;;;;10.42;67.74;99353.81;5066995;28;20037;-73
2023/04/19 00:24:15;;;;;;;12.13;10.65;;;;;;;10.40;67.68;99352.19;5066663;28;20066;-73
2023/04/19 00:26:44;;;;;;;15.40;10.57;;;;;;;10.39;67.55;99350.47;5066889;28;20037;-73
2023/04/19 00:29:11;;;;;;;11.52;10.15;;;;;;;10.37;67.81;99362.94;5066993;28;20099;-72
2023/04/19 00:31:38;;;;;;;12.65;10.98;;;;;;;10.37;67.65;99349.69;5066810;28;20284;-72
2023/04/19 00:34:05;;;;;;;11.57;10.07;;;;;;;10.12;67.64;99305.16;5066435;28;20041;-72
2023/04/19 00:36:31;;;;;;;11.77;10.40;;;;;;;10.21;67.75;99316.09;5066651;28;20042;-72
2023/04/19 00:38:58;;;;;;;12.98;11.60;;;;;;;10.31;67.62;99335.00;5066444;28;20041;-73
2023/04/19 00:41:25;;;;;;;11.57;10.20;;;;;;;10.31;67.60;99331.47;5066089;28;20043;-72
2023/04/19 00:43:53;;;;;;;12.80;11.25;;;;;;;10.30;67.76;99337.72;5065946;28;20052;-72
2023/04/19 00:46:20;;;;;;;14.23;11.82;;;;;;;10.28;67.99;99327.22;5066127;28;20052;-73
2023/04/19 00:48:47;;;;;;;13.90;11.55;;;;;;;10.28;67.99;99329.84;5066615;28;20044;-73
2023/04/19 00:51:14;;;;;;;12.50;11.00;;;;;;;10.27;67.92;99329.00;5064622;28;20067;-72
2023/04/19 00:53:41;;;;;;;12.93;11.52;;;;;;;10.27;67.94;99325.50;5065856;28;20112;-73
2023/04/19 00:56:09;;;;;;;14.30;11.35;;;;;;;10.27;67.75;99325.50;5065929;28;20049;-73
2023/04/19 00:58:38;;;;;;;14.23;11.40;;;;;;;10.26;67.72;99324.66;5066130;28;20087;-73
2023/04/19 01:01:06;;;;;;;13.38;11.98;;;;;;;10.26;67.72;99322.00;5066164;28;20044;-72
2023/04/19 01:03:34;;;;;;;13.45;11.13;;;;;;;10.27;67.86;99306.97;5066521;28;20044;-72
2023/04/19 01:06:00;;;;;;;13.38;11.93;;;;;;;10.28;67.85;99316.63;5065946;28;20045;-72
2023/04/19 01:08:27;;;;;;;11.98;10.70;;;;;;;10.26;67.79;99315.84;5065855;28;20037;-72
2023/04/19 01:10:54;;;;;;;12.60;11.30;;;;;;;10.25;67.76;99315.00;5065026;28;20368;-72
2023/04/19 01:13:20;;;;;;;12.95;11.65;;;;;;;10.22;67.77;99306.34;5066129;28;20055;-72
2023/04/19 01:15:47;;;;;;;13.73;12.30;;;;;;;10.26;67.68;99311.41;5066012;28;20052;-72
2023/04/19 01:18:15;;;;;;;13.68;12.25;;;;;;;10.24;67.57;99302.69;5065726;28;20086;-71
2023/04/19 01:20:42;;;;;;;14.07;12.10;;;;;;;10.22;67.67;99306.34;5065693;28;20041;-72
2023/04/19 01:23:11;;;;;;;14.40;11.93;;;;;;;10.20;67.68;99302.94;5064820;28;20073;-72
2023/04/19 01:25:38;;;;;;;12.30;10.45;;;;;;;10.20;67.71;99306.44;5066216;28;20052;-72
2023/04/19 01:28:04;;;;;;;13.02;11.65;;;;;;;10.17;67.58;99298.66;5065853;28;20301;-72
2023/04/19 01:30:31;;;;;;;13.13;11.73;;;;;;;10.14;67.76;99290.88;5065731;28;20049;-71
2023/04/19 01:32:58;;;;;;;13.90;12.30;;;;;;;10.13;68.03;99296.25;5065787;28;20052;-71
2023/04/19 01:35:24;;;;;;;14.85;12.30;;;;;;;10.13;67.76;99301.56;5066034;28;20052;-71
2023/04/19 01:37:54;;;;;;;13.18;11.82;;;;;;;10.12;67.94;99298.06;5065439;28;20052;-72
2023/04/19 01:40:23;;;;;;;15.63;11.82;;;;;;;10.10;68.17;99293.78;5065815;28;20033;-71
2023/04/19 01:42:50;;;;;;;13.00;11.65;;;;;;;10.10;67.88;99301.72;5065363;28;20071;-72
2023/04/19 01:45:17;;;;;;;14.20;12.57;;;;;;;10.10;67.86;99296.44;5065435;28;20036;-72
2023/04/19 01:47:43;;;;;;;14.63;12.80;;;;;;;10.11;67.85;99295.50;5065673;28;20051;-72
2023/04/19 01:50:10;;;;;;;14.32;12.55;;;;;;;10.08;67.95;99300.94;5065303;28;20048;-71
2023/04/19 01:52:37;;;;;;;15.30;13.60;;;;;;;10.04;68.08;99302.91;5065188;28;20052;-71
2023/04/19 01:55:04;;;;;;;14.43;12.45;;;;;;;10.02;68.13;99303.94;5064958;28;20043;-71
2023/04/19 01:57:32;;;;;;;14.73;13.18;;;;;;;10.00;68.25;99298.72;5064968;28;20094;-72
2023/04/19 01:59:59;;;;;;;16.13;14.43;;;;;;;9.98;68.35;99295.28;5065447;28;20041;-71
2023/04/19 02:02:26;;;;;;;14.85;13.35;;;;;;;10.00;68.43;99290.78;5066131;28;20301;-71
2023/04/19 02:04:53;;;;;;;13.55;11.50;;;;;;;10.01;68.52;99289.84;5069287;28;20052;-71
2023/04/19 02:07:19;;;;;;;12.95;11.57;;;;;;;10.02;68.32;99286.25;5069815;28;20053;-72
2023/04/19 02:09:46;;;;;;;15.00;13.13;;;;;;;10.00;68.37;99289.91;5069526;28;20285;-71
2023/04/19 02:12:13;;;;;;;15.93;13.40;;;;;;;9.99;68.33;99283.78;5069040;28;20066;-72
2023/04/19 02:14:41;;;;;;;14.40;12.73;;;;;;;9.94;68.52;99286.66;5069403;28;20055;-72
2023/04/19 02:17:08;;;;;;;15.50;12.90;;;;;;;9.92;68.54;99282.38;5068553;28;20041;-72
2023/04/19 02:19:35;;;;;;;15.45;13.95;;;;;;;9.91;68.63;99283.31;5069600;28;20044;-71
2023/04/19 02:22:01;;;;;;;16.75;13.85;;;;;;;9.90;68.63;99278.97;5069299;28;20068;-71
2023/04/19 02:24:28;;;;;;;17.58;15.05;;;;;;;9.84;68.85;99280.16;5069536;28;20068;-72
2023/04/19 02:26:55;;;;;;;16.08;14.00;;;;;;;9.84;69.04;99274.00;5069198;28;20086;-72
2023/04/19 02:29:22;;;;;;;15.02;13.45;;;;;;;9.82;69.17;99275.88;5069436;28;20045;-72
2023/04/19 02:31:50;;;;;;;16.00;14.30;;;;;;;9.56;69.14;99233.13;5068753;28;20037;-72
2023/04/19 02:34:17;;;;;;;15.35;13.75;;;;;;;9.79;68.95;99266.31;5068525;28;20090;-72
2023/04/19 02:36:44;;;;;;;15.05;13.30;;;;;;;9.79;69.13;99273.38;5068797;28;20051;-72
2023/04/19 02:39:11;;;;;;;14.60;13.07;;;;;;;9.77;69.21;99262.88;5068090;28;20041;-71
2023/04/19 02:41:37;;;;;;;16.83;12.80;;;;;;;9.77;69.26;99268.19;5068908;28;20040;-72
2023/04/19 02:44:04;;;;;;;14.88;13.27;;;;;;;9.81;69.22;99271.50;5068340;28;20102;-71
2023/04/19 02:46:31;;;;;;;14.75;13.18;;;;;;;9.82;69.09;99260.84;5069091;28;20053;-71
2023/04/19 02:49:00;;;;;;;17.15;13.45;;;;;;;9.78;69.19;99258.44;5069024;28;20041;-72
2023/04/19 02:51:27;;;;;;;17.25;14.02;;;;;;;9.76;69.28;99255.88;5068902;28;20087;-72
2023/04/19 02:53:54;;;;;;;16.45;14.73;;;;;;;9.76;69.19;99261.19;5068978;28;20071;-71
2023/04/19 02:56:20;;;;;;;16.52;14.73;;;;;;;9.77;69.21;99260.25;5068360;28;20045;-72
2023/04/19 02:58:47;;;;;;;16.17;14.13;;;;;;;9.77;69.24;99256.72;5068304;28;20147;-72
2023/04/19 03:01:14;;;;;;;22.60;15.27;;;;;;;9.76;69.34;99253.25;5068284;28;20040;-72
2023/04/19 03:03:40;;;;;;;16.77;14.98;;;;;;;9.78;69.21;99253.16;5068188;28;20049;-72
2023/04/19 03:06:08;;;;;;;17.98;16.08;;;;;;;9.80;69.25;99243.34;5068141;28;20198;-72
2023/04/19 03:08:35;;;;;;;20.45;16.02;;;;;;;9.79;69.21;99239.84;5068127;28;20045;-72
2023/04/19 03:11:02;;;;;;;16.98;15.20;;;;;;;9.81;69.22;99234.47;5068284;28;20290;-71
2023/04/19 03:13:28;;;;;;;20.13;16.48;;;;;;;9.81;69.18;99242.41;5068132;28;20292;-72
2023/04/19 03:15:55;;;;;;;15.70;13.85;;;;;;;9.79;69.02;99234.53;5067653;28;20289;-72
2023/04/19 03:18:22;;;;;;;16.27;14.63;;;;;;;9.33;68.96;99146.16;5067926;28;20080;-72
2023/04/19 03:20:49;;;;;;;20.95;15.27;;;;;;;9.85;69.26;99228.06;5067064;28;20102;-72
2023/04/19 03:23:17;;;;;;;16.92;15.02;;;;;;;9.84;69.39;99227.22;5068428;28;20066;-72
2023/04/19 03:25:43;;;;;;;17.45;15.68;;;;;;;9.86;69.22;99222.69;5066976;28;20083;-72
2023/04/19 03:28:10;;;;;;;19.25;15.60;;;;;;;9.90;69.09;99226.03;5067753;28;20044;-72
2023/04/19 03:30:37;;;;;;;19.23;14.82;;;;;;;9.91;69.24;99225.94;5067625;28;20102;-72
2023/04/19 03:33:03;;;;;;;18.35;15.57;;;;;;;9.90;69.15;99224.22;5067655;28;20051;-72
2023/04/19 03:35:31;;;;;;;19.52;16.27;;;;;;;9.51;69.20;99152.28;5067552;28;20051;-72
2023/04/19 03:37:58;;;;;;;17.95;16.05;;;;;;;9.92;69.38;99214.41;5067571;28;20049;-72
2023/04/19 03:40:26;;;;;;;19.55;16.70;;;;;;;9.94;69.25;99216.97;5067838;28;20055;-72
2023/04/19 03:42:52;;;;;;;21.27;16.48;;;;;;;9.93;69.41;99221.41;5067665;28;20305;-72
2023/04/19 03:45:19;;;;;;;19.15;17.23;;;;;;;9.97;69.60;99210.66;5067423;28;20043;-72
2023/04/19 03:47:46;;;;;;;22.65;16.95;;;;;;;9.96;69.73;99215.09;5066565;28;20041;-73
2023/04/19 03:50:12;;;;;;;19.92;16.63;;;;;;;9.78;69.88;99184.34;5067312;28;20063;-72
2023/04/19 03:52:39;;;;;;;17.90;16.00;;;;;;;9.97;69.92;99194.78;5067168;28;20056;-72
2023/04/19 03:55:07;;;;;;;17.42;15.60;;;;;;;9.96;69.73;99199.22;5067523;28;20041;-72
2023/04/19 03:57:35;;;;;;;21.98;17.95;;;;;;;9.97;69.77;99202.72;5066637;28;20136;-72
2023/04/19 04:00:05;;;;;;;23.98;18.30;;;;;;;9.96;69.96;99199.22;5067383;28;20041;-72
2023/04/19 04:02:32;;;;;;;20.98;16.17;;;;;;;9.92;70.12;99193.22;5049667;28;20043;-72
2023/04/19 04:04:59;;;;;;;20.08;17.70;;;;;;;9.61;70.10;99156.16;5067295;28;20052;-72
2023/04/19 04:07:25;;;;;;;20.13;17.83;;;;;;;9.93;70.29;99194.09;5066927;28;20197;-72
2023/04/19 04:09:52;;;;;;;20.73;18.52;;;;;;;9.75;70.38;99180.06;5067259;28;20047;-72
2023/04/19 04:12:19;;;;;;;19.77;17.67;;;;;;;9.90;70.54;99204.84;5066887;28;20040;-72
2023/04/19 04:14:47;;;;;;;19.70;17.60;;;;;;;9.91;70.46;99212.69;5067089;28;20057;-71
2023/04/19 04:17:14;;;;;;;19.17;16.63;;;;;;;9.91;70.53;99214.50;5067387;28;20056;-72
2023/04/19 04:19:40;;;;;;;19.95;17.40;;;;;;;9.52;70.26;99138.13;5066823;28;20037;-72
2023/04/19 04:22:07;;;;;;;18.92;16.80;;;;;;;9.94;70.54;99206.38;5066688;28;20055;-72
2023/04/19 04:24:40;;;;;;;21.38;16.98;;;;;;;9.94;70.62;99198.44;5066929;28;20082;-72
2023/04/19 04:27:08;;;;;;;22.70;17.17;;;;;;;9.93;70.52;99209.97;5066935;28;20083;-72
2023/04/19 04:29:36;;;;;;;20.63;18.50;;;;;;;9.94;70.62;99198.44;5067215;28;20044;-72
2023/04/19 04:32:04;;;;;;;21.52;18.70;;;;;;;9.94;70.49;99206.38;5066895;28;20048;-72
2023/04/19 04:34:31;;;;;;;21.33;17.95;;;;;;;9.93;70.74;99210.81;5066806;28;20237;-72
2023/04/19 04:36:58;;;;;;;21.75;17.45;;;;;;;9.92;70.74;99201.19;5066440;28;20040;-71
2023/04/19 04:39:25;;;;;;;19.30;16.40;;;;;;;9.94;70.67;99209.03;5066681;28;20055;-72
2023/04/19 04:41:52;;;;;;;17.63;15.77;;;;;;;9.92;70.85;99205.63;5066591;28;20041;-72
2023/04/19 04:44:19;;;;;;;18.00;16.10;;;;;;;9.91;70.79;99212.69;5066057;28;20060;-72
2023/04/19 04:46:46;;;;;;;21.75;18.73;;;;;;;9.72;70.94;99177.59;5066229;28;20045;-72
2023/04/19 04:49:14;;;;;;;20.27;17.30;;;;;;;9.91;70.99;99218.00;5065794;28;20053;-72
2023/04/19 04:51:41;;;;;;;18.67;16.77;;;;;;;9.74;70.88;99172.22;5065641;28;20043;-72
2023/04/19 04:54:08;;;;;;;20.05;17.75;;;;;;;9.93;71.05;99197.59;5066079;28;20041;-72
2023/04/19 04:56:34;;;;;;;19.77;16.98;;;;;;;9.93;70.93;99191.44;5066259;28;20228;-72
2023/04/19 04:59:01;;;;;;;19.17;17.17;;;;;;;9.93;71.06;99196.72;5066267;28;20104;-72
2023/04/19 05:01:28;;;;;;;18.17;16.25;;;;;;;9.91;71.28;99185.38;5066140;28;20255;-71
2023/04/19 05:03:54;;;;;;;18.25;16.20;;;;;;;9.89;71.49;99189.91;5066368;28;20248;-72
2023/04/19 05:06:22;;;;;;;18.10;15.45;;;;;;;9.85;71.59;99191.88;5066292;28;20048;-72
2023/04/19 05:08:49;;;;;;;18.13;16.23;;;;;;;9.85;71.85;99180.41;5065646;28;20036;-72
2023/04/19 05:11:16;;;;;;;18.30;16.42;;;;;;;9.83;71.73;99182.28;5066058;28;20104;-72
2023/04/19 05:13:42;;;;;;;17.42;15.57;;;;;;;9.83;71.78;99187.59;5065987;28;20044;-72
2023/04/19 05:16:09;;;;;;;18.63;16.63;;;;;;;9.78;71.70;99181.69;5065960;28;20051;-72
2023/04/19 05:18:36;;;;;;;20.70;17.08;;;;;;;9.81;71.80;99189.47;5064787;28;20052;-72
2023/04/19 05:21:03;;;;;;;20.00;16.45;;;;;;;9.84;71.83;99181.34;5065624;28;20293;-72
2023/04/19 05:23:31;;;;;;;17.50;15.68;;;;;;;9.83;71.98;99175.22;5065790;28;20045;-72
2023/04/19 05:25:57;;;;;;;19.33;17.23;;;;;;;9.62;71.97;99134.91;5065779;28;20289;-72
2023/04/19 05:28:24;;;;;;;18.10;16.13;;;;;;;9.85;71.73;99181.28;5065762;28;20053;-72
2023/04/19 05:30:52;;;;;;;18.70;16.45;;;;;;;9.78;71.67;99157.88;5065884;28;20051;-72
2023/04/19 05:33:18;;;;;;;21.00;17.25;;;;;;;9.89;71.89;99179.31;5065737;28;20078;-71
2023/04/19 05:35:45;;;;;;;19.40;16.15;;;;;;;9.88;72.15;99182.91;5065753;28;20281;-72
2023/04/19 05:38:12;;;;;;;17.70;15.85;;;;;;;9.88;72.08;99173.16;5065326;28;20037;-72
2023/04/19 05:40:40;;;;;;;17.33;15.35;;;;;;;9.88;72.12;99174.97;5065561;28;20095;-72
2023/04/19 05:43:07;;;;;;;19.70;15.73;;;;;;;9.87;72.20;99166.16;5065430;28;20065;-72
2023/04/19 05:45:33;;;;;;;16.45;14.63;;;;;;;9.87;72.27;99170.59;5065869;28;20059;-72
2023/04/19 05:48:00;;;;;;;18.48;15.32;;;;;;;9.67;72.36;99134.66;5065260;28;20049;-72
2023/04/19 05:50:27;;;;;;;18.25;16.35;;;;;;;9.71;72.86;99133.53;5065236;28;20041;-71
2023/04/19 05:52:53;;;;;;;18.60;16.40;;;;;;;9.75;72.75;99137.72;5064314;28;20047;-72
2023/04/19 05:55:20;;;;;;;20.58;16.67;;;;;;;9.89;72.72;99152.84;5065214;28;20051;-72
2023/04/19 05:57:49;;;;;;;19.92;16.25;;;;;;;8.56;72.84;98932.66;5065252;28;20044;-72
2023/04/19 06:00:16;;;;;;;19.45;16.33;;;;;;;9.94;72.93;99158.72;5065249;28;20043;-72
2023/04/19 06:02:43;;;;;;;19.52;17.20;;;;;;;9.97;72.99;99157.72;5064335;28;20047;-72
2023/04/19 06:05:10;;;;;;;19.42;16.73;;;;;;;9.62;73.01;99099.66;5065215;28;20318;-72
2023/04/19 06:07:37;;;;;;;19.20;16.17;;;;;;;9.99;73.17;99155.81;5065163;28;20099;-72
2023/04/19 06:10:05;;;;;;;20.35;18.20;;;;;;;10.00;72.81;99150.44;5065364;28;20305;-72
2023/04/19 06:12:31;;;;;;;20.10;17.85;;;;;;;9.89;73.09;99131.66;5065214;28;20174;-72
2023/04/19 06:14:59;;;;;;;19.73;17.63;;;;;;;9.98;72.99;99149.69;5065284;28;20047;-72
2023/04/19 06:17:26;;;;;;;20.58;17.20;;;;;;;10.06;72.97;99154.53;5064889;28;20060;-72
2023/04/19 06:19:53;;;;;;;18.67;16.67;;;;;;;9.51;73.07;99097.59;5064969;28;20055;-72
2023/04/19 06:22:20;;;;;;;19.52;17.52;;;;;;;10.09;73.09;99162.31;5064983;28;20051;-71
2023/04/19 06:24:48;;;;;;;18.02;15.55;;;;;;;10.09;73.19;99157.88;5064948;28;20343;-71
2023/04/19 06:27:15;;;;;;;19.30;17.13;;;;;;;10.09;73.41;99173.75;5064888;28;20041;-72
2023/04/19 06:29:42;;;;;;;20.35;17.55;;;;;;;10.12;73.16;99164.78;5064860;28;20074;-72
2023/04/19 06:32:11;;;;;;;18.60;16.67;;;;;;;9.55;73.00;99079.75;5065348;28;20116;-72
2023/04/19 06:34:37;;;;;;;20.85;18.35;;;;;;;10.10;72.92;99164.03;5065429;28;20040;-72
2023/04/19 06:37:04;;;;;;;19.48;16.63;;;;;;;8.31;72.72;98855.69;5065308;28;20045;-72
2023/04/19 06:39:31;;;;;;;21.05;17.60;;;;;;;8.76;72.71;98942.16;5064994;28;20052;-72
2023/04/19 06:41:57;;;;;;;19.67;17.60;;;;;;;10.08;73.00;99160.59;5065271;28;20051;-71
2023/04/19 06:44:24;;;;;;;18.63;16.33;;;;;;;9.72;72.74;99108.78;5064621;28;20125;-72
2023/04/19 06:46:51;;;;;;;20.67;16.73;;;;;;;10.04;72.69;99153.78;5065211;28;20107;-72
2023/04/19 06:49:19;;;;;;;18.42;16.52;;;;;;;8.54;72.46;98904.63;5065792;28;20049;-72
2023/04/19 06:51:46;;;;;;;18.83;16.75;;;;;;;10.01;72.78;99154.81;5068826;28;20032;-72
2023/04/19 06:54:13;;;;;;;18.27;16.33;;;;;;;10.01;72.67;99146.88;5068316;28;20061;-72
2023/04/19 06:56:44;;;;;;;20.33;17.02;;;;;;;9.99;72.52;99155.81;5068513;28;20045;-72
2023/04/19 06:59:11;;;;;;;18.80;15.57;;;;;;;9.73;72.72;99126.38;5067453;28;20032;-72
2023/04/19 07:01:38;;;;;;;19.40;16.42;;;;;;;9.77;73.29;99145.59;5068235;28;20041;-72
2023/04/19 07:04:05;;;;;;;19.23;17.13;;;;;;;9.87;72.95;99158.22;5068381;28;20040;-72
2023/04/19 07:06:34;;;;;;;18.08;16.08;;;;;;;9.72;73.00;99126.47;5068479;28;20053;-72
2023/04/19 07:09:00;;;;;;;19.90;17.10;;;;;;;9.89;73.13;99158.13;5068317;28;20041;-72
2023/04/19 07:11:27;;;;;;;19.33;16.55;;;;;;;9.60;73.17;99106.81;5068569;28;20041;-72
2023/04/19 07:13:54;;;;;;;17.88;15.85;;;;;;;9.86;73.14;99151.22;5068041;28;20236;-72
2023/04/19 07:16:21;;;;;;;17.75;15.95;;;;;;;9.85;73.37;99146.88;5067940;28;20041;-72
2023/04/19 07:18:47;;;;;;;17.95;15.25;;;;;;;9.68;73.52;99122.28;5068272;28;20044;-72
2023/04/19 07:21:15;;;;;;;17.20;15.40;;;;;;;9.88;73.62;99159.94;5067049;28;20048;-72
2023/04/19 07:23:43;;;;;;;16.67;14.88;;;;;;;9.66;73.49;99106.47;5067756;28;20041;-72
2023/04/19 07:26:09;;;;;;;16.45;14.25;;;;;;;9.89;73.54;99150.19;5067936;28;20107;-72
2023/04/19 07:28:36;;;;;;;16.42;13.55;;;;;;;9.89;73.64;99152.84;5067788;28;20056;-72
2023/04/19 07:31:03;;;;;;;16.48;14.50;;;;;;;9.89;73.89;99150.19;5068215;28;20052;-72
2023/04/19 07:33:29;;;;;;;16.95;15.18;;;;;;;9.90;73.92;99147.47;5068065;28;20037;-72
2023/04/19 07:35:56;;;;;;;16.25;14.52;;;;;;;9.92;73.94;99142.94;5067592;28;20045;-72
2023/04/19 07:38:23;;;;;;;16.15;14.48;;;;;;;9.95;74.21;99145.41;5067465;28;20043;-72
2023/04/19 07:40:51;;;;;;;16.33;14.30;;;;;;;9.96;74.34;99146.25;5068088;28;20041;-72
2023/04/19 07:43:18;;;;;;;14.68;12.40;;;;;;;9.98;74.49;99146.19;5067533;28;20111;-72
2023/04/19 07:45:45;;;;;;;14.10;12.60;;;;;;;9.65;74.54;99086.25;5067737;28;20040;-72
2023/04/19 07:48:11;;;;;;;14.68;12.32;;;;;;;9.20;74.45;99013.75;5067351;28;20049;-72
2023/04/19 07:50:38;;;;;;;13.65;11.45;;;;;;;10.02;74.68;99134.47;5067404;28;20236;-73
2023/04/19 07:53:05;;;;;;;14.18;11.15;;;;;;;10.01;74.69;99143.34;5067188;28;20044;-73
2023/04/19 07:55:31;;;;;;;13.32;11.95;;;;;;;10.01;74.84;99138.91;5067375;28;20052;-72
2023/04/19 07:58:01;;;;;;;12.60;10.75;;;;;;;10.01;74.89;99141.56;5067311;28;20111;-72
2023/04/19 08:00:28;;;;;;;13.07;11.68;;;;;;;10.02;74.89;99147.72;5066935;28;20041;-72
2023/04/19 08:02:56;;;;;;;14.00;11.95;;;;;;;10.03;74.93;99141.47;5067165;28;20048;-72
2023/04/19 08:05:23;;;;;;;12.25;10.95;;;;;;;10.02;75.15;99139.78;5067074;28;20048;-72
2023/04/19 08:07:51;;;;;;;12.95;11.07;;;;;;;10.03;75.21;99142.34;5067220;28;20045;-72
2023/04/19 08:10:19;;;;;;;12.48;10.30;;;;;;;10.04;75.04;99143.19;5067055;28;20285;-72
2023/04/19 08:12:45;;;;;;;11.90;10.38;;;;;;;10.05;75.10;99143.09;5067274;28;20087;-72
2023/04/19 08:15:13;;;;;;;12.00;10.82;;;;;;;9.89;75.07;99106.03;5067070;28;20045;-72
2023/04/19 08:17:41;;;;;;;14.98;12.32;;;;;;;10.10;74.88;99142.84;5066923;28;20103;-73
2023/04/19 08:20:11;;;;;;;13.25;11.55;;;;;;;10.11;74.90;99141.91;5067276;28;20296;-72
2023/04/19 08:22:38;;;;;;;13.13;11.82;;;;;;;9.78;74.92;99084.63;5067341;28;20305;-72
2023/04/19 08:25:06;;;;;;;12.38;10.88;;;;;;;10.14;75.19;99139.94;5067713;28;20048;-72
2023/04/19 08:27:32;;;;;;;13.57;10.73;;;;;;;10.17;75.25;99136.25;5065948;28;20208;-72
2023/04/19 08:29:59;;;;;;;12.07;9.82;;;;;;;10.19;75.01;99132.59;5067024;28;20044;-71
2023/04/19 08:32:27;;;;;;;12.75;10.77;;;;;;;10.22;75.14;99132.41;5066833;28;20040;-72
2023/04/19 08:34:54;;;;;;;13.85;10.98;;;;;;;10.24;75.29;99124.38;5066591;28;20040;-72
2023/04/19 08:37:21;;;;;;;13.68;11.82;;;;;;;9.94;75.37;99071.38;5067342;28;20301;-72
2023/04/19 08:39:47;;;;;;;12.77;10.93;;;;;;;10.30;75.24;99131.97;5067035;28;20041;-72
2023/04/19 08:42:14;;;;;;;13.18;11.63;;;;;;;10.31;74.97;99122.22;5066573;28;20039;-72
2023/04/19 08:44:42;;;;;;;12.30;10.45;;;;;;;10.00;74.95;99070.16;5065377;28;20297;-72
2023/04/19 08:47:09;;;;;;;12.95;11.52;;;;;;;10.33;74.85;99123.84;5066553;28;20040;-72
2023/04/19 08:49:39;;;;;;;11.60;10.40;;;;;;;10.27;74.93;99122.41;5066313;28;20055;-72
2023/04/19 08:52:07;;;;;;;11.15;9.98;;;;;;;9.95;74.77;99062.50;5066220;28;20120;-72
2023/04/19 08:54:35;;;;;;;13.02;10.65;;;;;;;10.37;74.80;99130.66;5066491;28;20056;-72
2023/04/19 08:57:02;;;;;;;12.35;11.02;;;;;;;10.37;74.74;99128.03;5066676;28;20033;-72
2023/04/19 08:59:31;;;;;;;10.18;8.45;;;;;;;10.38;75.05;99131.53;5066450;28;20311;-72
2023/04/19 09:02:01;;;;;;;10.95;9.57;;;;;;;10.40;75.09;99134.94;5066892;28;20044;-72
2023/04/19 09:04:28;;;;;;;10.98;9.25;;;;;;;10.25;74.76;99108.41;5066299;28;20044;-72
2023/04/19 09:06:56;;;;;;;10.77;9.60;;;;;;;8.80;74.61;98867.06;5065719;28;20043;-72
2023/04/19 09:09:25;;;;;;;9.02;7.95;;;;;;;10.41;74.95;99137.50;5066268;28;20167;-72
2023/04/19 09:11:51;;;;;;;10.25;7.75;;;;;;;10.39;74.78;99134.09;5065233;28;20045;-72
2023/04/19 09:14:20;;;;;;;11.27;8.60;;;;;;;10.38;74.78;99126.22;5066272;28;20045;-72
2023/04/19 09:16:47;;;;;;;10.95;8.48;;;;;;;10.34;75.16;99125.56;5065803;28;20044;-72
2023/04/19 09:19:15;;;;;;;10.30;9.20;;;;;;;10.13;75.48;99090.56;5066042;28;20108;-72
2023/04/19 09:21:42;;;;;;;7.97;6.78;;;;;;;10.33;75.55;99125.63;5064820;28;20059;-73
2023/04/19 09:24:10;;;;;;;11.02;7.72;;;;;;;9.47;75.72;98990.25;5065847;28;20067;-72
2023/04/19 09:26:37;;;;;;;8.65;7.07;;;;;;;9.80;75.49;99052.78;5066257;28;20057;-72
2023/04/19 09:29:05;;;;;;;7.00;6.30;;;;;;;10.34;75.59;99132.66;5065564;28;20103;-72
2023/04/19 09:31:34;;;;;;;8.27;6.75;;;;;;;9.32;75.52;98960.19;5065714;28;20107;-72
2023/04/19 09:34:13;;;;;;;7.97;7.18;;;;;;;6.42;75.78;98480.81;5064979;28;20103;-72
2023/04/19 09:36:40;;;;;;;7.60;6.32;;;;;;;10.40;75.83;99132.28;5065575;28;20052;-72
2023/04/19 09:39:07;;;;;;;8.60;7.40;;;;;;;10.44;75.82;99133.81;5065600;28;20049;-72
2023/04/19 09:41:36;;;;;;;8.48;7.55;;;;;;;10.47;75.99;99134.50;5065064;28;20059;-72
2023/04/19 09:44:11;;;;;;;8.32;7.20;;;;;;;10.48;76.57;99128.25;5065182;28;20040;-72
2023/04/19 09:46:41;;;;;;;7.43;6.18;;;;;;;10.51;76.18;99133.38;5065307;28;20053;-72
2023/04/19 09:49:19;;;;;;;8.98;7.15;;;;;;;10.54;76.75;99121.75;5065458;28;20045;-71
2023/04/19 09:51:47;;;;;;;7.18;6.28;;;;;;;10.56;75.76;99125.16;5065671;28;20227;-72
2023/04/19 09:54:15;;;;;;;8.85;6.65;;;;;;;10.04;75.50;99038.13;5065776;28;20049;-72
2023/04/19 09:56:43;;;;;;;8.23;7.00;;;;;;;10.39;75.61;99085.53;5065536;28;20064;-72
2023/04/19 09:59:11;;;;;;;8.23;7.25;;;;;;;10.62;75.63;99124.78;5065667;28;20075;-72
2023/04/19 10:01:39;;;;;;;8.45;7.55;;;;;;;10.13;75.41;99037.59;5065681;28;20059;-72
2023/04/19 10:04:07;;;;;;;8.05;7.25;;;;;;;10.45;75.47;99083.38;5065074;28;20049;-72
2023/04/19 10:06:35;;;;;;;9.93;6.68;;;;;;;10.67;75.37;99121.88;5065735;28;20047;-72
2023/04/19 10:09:03;;;;;;;8.93;7.88;;;;;;;10.68;75.36;99118.28;5065466;28;20047;-72
2023/04/19 10:11:35;;;;;;;9.75;8.40;;;;;;;10.63;75.22;99107.09;5065232;28;20044;-73
2023/04/19 10:14:05;;;;;;;7.20;6.50;;;;;;;10.71;75.31;99123.41;5065246;28;20053;-73
2023/04/19 10:16:32;;;;;;;10.65;7.78;;;;;;;10.55;75.45;99089.00;5065136;28;20244;-72
2023/04/19 10:19:00;;;;;;;7.18;6.05;;;;;;;10.58;75.45;99086.16;5065517;28;20037;-72
2023/04/19 10:21:28;;;;;;;7.70;6.75;;;;;;;10.81;75.01;99116.63;5065360;28;20067;-72
2023/04/19 10:23:56;;;;;;;11.75;7.63;;;;;;;10.84;75.11;99111.16;5067122;28;20041;-72
2023/04/19 10:26:23;;;;;;;8.60;7.70;;;;;;;10.83;74.97;99112.94;5068148;28;20044;-72
2023/04/19 10:28:50;;;;;;;7.90;6.97;;;;;;;10.88;74.74;99120.63;5069206;28;20041;-72
2023/04/19 10:31:22;;;;;;;8.52;7.53;;;;;;;10.71;74.77;99084.50;5069115;28;20037;-72
2023/04/19 10:33:50;;;;;;;8.45;6.57;;;;;;;10.77;74.86;99073.56;5069459;28;20048;-72
2023/04/19 10:36:17;;;;;;;9.95;8.15;;;;;;;10.97;74.55;99104.16;5068772;28;20044;-72
2023/04/19 10:38:46;;;;;;;8.55;7.63;;;;;;;10.99;74.51;99106.72;5068515;28;20071;-72
2023/04/19 10:41:14;;;;;;;10.48;8.82;;;;;;;9.77;73.89;98945.31;5068884;28;20041;-72
2023/04/19 10:43:44;;;;;;;9.05;7.45;;;;;;;10.93;73.97;99102.63;5068349;28;20173;-72
2023/04/19 10:46:15;;;;;;;8.77;7.88;;;;;;;10.90;74.31;99108.97;5068496;28;20213;-72
2023/04/19 10:48:53;;;;;;;10.02;8.88;;;;;;;10.90;74.62;99100.19;5068197;28;20052;-72
2023/04/19 10:51:21;;;;;;;14.07;8.95;;;;;;;10.93;74.09;99104.44;5068505;28;20071;-71
2023/04/19 10:53:53;;;;;;;9.98;8.85;;;;;;;10.91;74.15;99104.53;5068274;28;20315;-71
2023/04/19 10:56:22;;;;;;;9.55;8.50;;;;;;;10.90;74.31;99101.03;5068359;28;20045;-72
2023/04/19 10:59:20;;;;;;;10.40;8.73;;;;;;;10.89;74.96;99096.66;5068607;28;20045;-71
2023/04/19 11:01:58;;;;;;;10.68;8.32;;;;;;;10.88;74.77;99096.75;5068667;28;20282;-72
2023/04/19 11:05:13;;;;;;;11.10;8.45;;;;;;;10.89;75.52;99093.16;5068312;28;20045;-72
2023/04/19 11:07:41;;;;;;;9.15;8.10;;;;;;;10.88;74.93;99092.31;5068563;28;20068;-72
2023/04/19 11:10:10;;;;;;;11.70;10.50;;;;;;;10.91;75.01;99096.56;5068428;28;20036;-72
2023/04/19 11:12:37;;;;;;;12.18;8.98;;;;;;;10.95;74.55;99090.16;5068505;28;20037;-72
2023/04/19 11:15:08;;;;;;;10.65;9.50;;;;;;;10.88;74.78;99073.75;5068552;28;20052;-72
2023/04/19 11:17:37;;;;;;;10.02;8.73;;;;;;;10.98;74.09;99083.81;5068268;28;20045;-72
2023/04/19 11:20:08;;;;;;;12.45;8.85;;;;;;;11.00;73.98;99079.25;5067732;28;20104;-72
2023/04/19 11:22:37;;;;;;;9.55;7.95;;;;;;;11.02;73.96;99080.00;5066878;28;20085;-72
2023/04/19 11:25:09;;;;;;;12.40;9.27;;;;;;;11.10;73.76;99077.75;5067785;28;20033;-71
2023/04/19 11:27:36;;;;;;;11.15;8.93;;;;;;;11.13;73.45;99085.50;5068116;28;20112;-72